Time;durP1;ratioP1;P1;durP2;ratioP2;P2;SDS_P1;SDS_P2;PMS_P1;PMS_P2;Temp;Humidity;BMP_temperature;BMP_pressure;BME280_temperature;BME280_humidity;BME280_pressure;Samples;Min_cycle;Max_cycle;Signal;HPM_P1;HPM_P2
2023/09/17 00:01:41;;;;;;;7.47;4.50;;;16.10;1.00;;;;;;10252038;29;20305;-77
2023/09/17 00:07:22;;;;;;;4.95;4.00;;;16.00;1.00;;;;;;10237370;29;20243;-77
2023/09/17 00:12:43;;;;;;;7.68;4.80;;;16.00;1.00;;;;;;10234584;29;20387;-77
2023/09/17 00:18:05;;;;;;;6.22;4.50;;;16.00;1.00;;;;;;10235924;29;20519;-78
2023/09/17 00:23:26;;;;;;;7.07;4.47;;;15.90;1.00;;;;;;10236435;29;20541;-77
2023/09/17 00:28:49;;;;;;;9.52;5.18;;;15.70;1.00;;;;;;10237112;29;20206;-78
2023/09/17 00:34:11;;;;;;;8.65;5.20;;;15.70;1.00;;;;;;10236160;29;20214;-77
2023/09/17 00:39:32;;;;;;;7.95;4.70;;;15.60;1.00;;;;;;10235730;29;20545;-78
2023/09/17 00:44:53;;;;;;;8.27;5.57;;;15.60;1.00;;;;;;10234426;29;20229;-78
2023/09/17 00:50:16;;;;;;;9.45;6.32;;;15.60;1.00;;;;;;10233756;29;20484;-78
2023/09/17 00:55:38;;;;;;;9.20;5.88;;;15.50;9.20;;;;;;10236172;29;20276;-78
2023/09/17 01:01:00;;;;;;;8.15;5.57;;;15.40;1.00;;;;;;10233942;29;20211;-77
2023/09/17 01:06:21;;;;;;;6.95;5.07;;;15.40;20.70;;;;;;10234895;29;20266;-78
2023/09/17 01:11:43;;;;;;;8.55;5.18;;;15.30;64.00;;;;;;10224018;29;20242;-77
2023/09/17 01:17:07;;;;;;;9.77;5.55;;;15.30;21.00;;;;;;10235107;29;20195;-78
2023/09/17 01:22:44;;;;;;;7.28;5.85;;;15.30;68.30;;;;;;10234408;29;20544;-78
2023/09/17 01:28:06;;;;;;;8.15;5.57;;;15.20;1.00;;;;;;10234215;29;20192;-78
2023/09/17 01:33:29;;;;;;;6.93;4.90;;;15.20;99.90;;;;;;10235404;29;20217;-78
2023/09/17 01:38:59;;;;;;;9.23;6.03;;;15.20;99.90;;;;;;10233989;29;20521;-77
2023/09/17 01:44:22;;;;;;;9.35;5.57;;;15.30;1.00;;;;;;10233165;29;20418;-78
2023/09/17 01:49:46;;;;;;;9.48;5.50;;;15.10;54.40;;;;;;10234898;29;20219;-78
2023/09/17 01:55:10;;;;;;;7.32;5.63;;;15.10;99.90;;;;;;10230999;29;20214;-78
2023/09/17 02:00:32;;;;;;;9.00;6.07;;;15.10;99.90;;;;;;10239377;29;20204;-76
2023/09/17 02:05:53;;;;;;;11.50;6.55;;;15.10;99.90;;;;;;10254164;29;20241;-78
2023/09/17 02:11:15;;;;;;;10.05;6.43;;;14.90;99.90;;;;;;10241335;29;20226;-77
2023/09/17 02:16:37;;;;;;;10.75;6.53;;;14.90;99.90;;;;;;10241232;29;20193;-78
2023/09/17 02:21:59;;;;;;;9.13;5.70;;;14.90;99.90;;;;;;10239836;29;20467;-78
2023/09/17 02:27:22;;;;;;;10.35;6.05;;;15.00;99.90;;;;;;10241927;29;20245;-77
2023/09/17 02:32:43;;;;;;;11.15;6.88;;;14.90;1.00;;;;;;10226137;29;20213;-78
2023/09/17 02:38:05;;;;;;;13.60;7.13;;;14.80;1.00;;;;;;10240516;29;20425;-78
2023/09/17 02:43:29;;;;;;;9.15;6.65;;;14.80;99.90;;;;;;10239302;29;20235;-77
2023/09/17 02:48:53;;;;;;;10.50;7.00;;;14.90;99.90;;;;;;10226899;29;20201;-78
2023/09/17 02:54:14;;;;;;;9.82;7.20;;;14.80;1.00;;;;;;10232871;29;20277;-78
2023/09/17 02:59:36;;;;;;;10.75;7.47;;;14.70;1.00;;;;;;10239718;29;20200;-78
2023/09/17 03:04:58;;;;;;;11.38;6.38;;;14.70;1.00;;;;;;10238583;29;20243;-78
2023/09/17 03:10:20;;;;;;;9.85;5.95;;;;;;;;;;10225738;29;20245;-77
2023/09/17 03:15:44;;;;;;;8.02;5.50;;;;;;;;;;10238682;29;20506;-78
2023/09/17 03:21:06;;;;;;;8.75;5.75;;;14.50;99.90;;;;;;10238185;29;20195;-78
2023/09/17 03:26:29;;;;;;;7.85;6.60;;;14.60;1.00;;;;;;10186162;29;20203;-78
2023/09/17 03:31:50;;;;;;;8.32;5.88;;;14.50;1.00;;;;;;10206000;29;20216;-78
2023/09/17 03:37:13;;;;;;;8.00;5.65;;;14.50;99.90;;;;;;10211755;29;20497;-78
2023/09/17 03:42:35;;;;;;;6.65;5.20;;;14.40;99.90;;;;;;10238079;29;20253;-78
2023/09/17 03:47:58;;;;;;;8.48;5.72;;;14.50;99.90;;;;;;10211420;29;20206;-77
2023/09/17 03:53:21;;;;;;;8.32;6.25;;;14.40;99.90;;;;;;10209558;29;20206;-77
2023/09/17 03:58:44;;;;;;;8.15;6.07;;;14.50;99.90;;;;;;10239647;29;20202;-77
2023/09/17 04:04:07;;;;;;;8.48;5.82;;;14.40;99.90;;;;;;10236391;29;20253;-78
2023/09/17 04:09:29;;;;;;;8.40;6.43;;;14.40;99.90;;;;;;10250114;29;20391;-78
2023/09/17 04:14:52;;;;;;;10.05;6.47;;;14.50;1.00;;;;;;10221919;29;20238;-78
2023/09/17 04:20:18;;;;;;;7.40;5.93;;;14.40;99.90;;;;;;10236196;29;20505;-78
2023/09/17 04:25:39;;;;;;;7.95;6.53;;;14.40;99.90;;;;;;10235203;29;20494;-78
2023/09/17 04:31:01;;;;;;;11.45;6.47;;;14.40;99.90;;;;;;10238355;29;20201;-78
2023/09/17 04:36:23;;;;;;;11.45;6.00;;;14.40;99.90;;;;;;10235974;29;20217;-78
2023/09/17 04:41:45;;;;;;;9.95;6.13;;;14.40;1.00;;;;;;10235560;29;20215;-78
2023/09/17 04:47:07;;;;;;;13.98;6.53;;;14.40;1.00;;;;;;10234910;29;20297;-78
2023/09/17 04:52:29;;;;;;;9.15;5.78;;;14.30;1.00;;;;;;10235608;29;20444;-78
2023/09/17 04:57:52;;;;;;;8.40;5.65;;;14.30;1.00;;;;;;10233847;29;20278;-78
2023/09/17 05:03:13;;;;;;;8.00;6.45;;;14.30;1.00;;;;;;10234473;29;20423;-78
2023/09/17 05:08:35;;;;;;;8.50;6.10;;;14.40;1.00;;;;;;10221443;29;20205;-78
2023/09/17 05:13:57;;;;;;;10.85;6.50;;;14.40;1.00;;;;;;10234175;29;20198;-78
2023/09/17 05:19:18;;;;;;;8.50;7.20;;;14.40;1.00;;;;;;10195515;29;20225;-78
2023/09/17 05:24:40;;;;;;;9.23;6.32;;;14.50;15.70;;;;;;10194550;29;20237;-77
2023/09/17 05:30:03;;;;;;;9.73;7.78;;;14.70;1.00;;;;;;10194321;29;20510;-78
2023/09/17 05:35:25;;;;;;;14.02;8.18;;;14.80;1.00;;;;;;10233620;29;20202;-77
2023/09/17 05:40:47;;;;;;;12.50;7.80;;;14.90;1.00;;;;;;10234676;29;20224;-78
2023/09/17 05:46:09;;;;;;;14.90;8.82;;;15.10;1.00;;;;;;10233992;29;20230;-78
2023/09/17 05:51:35;;;;;;;13.75;9.35;;;15.20;95.90;;;;;;10233818;29;20221;-77
2023/09/17 05:56:56;;;;;;;13.38;9.27;;;15.40;48.00;;;;;;10220554;29;20201;-78
2023/09/17 06:02:18;;;;;;;11.50;8.20;;;15.50;9.20;;;;;;10231878;29;20251;-77
2023/09/17 06:07:40;;;;;;;11.52;8.18;;;15.70;68.80;;;;;;10233006;29;20241;-78
2023/09/17 06:13:03;;;;;;;12.52;9.85;;;15.80;99.90;;;;;;10193998;29;20216;-77
2023/09/17 06:18:25;;;;;;;15.95;8.93;;;15.90;1.00;;;;;;10242164;29;20496;-77
2023/09/17 06:23:47;;;;;;;12.23;8.82;;;16.10;29.40;;;;;;10233325;29;20251;-78
2023/09/17 06:29:09;;;;;;;11.68;8.48;;;16.20;1.00;;;;;;10232856;29;20195;-78
2023/09/17 06:34:31;;;;;;;11.48;8.75;;;16.40;1.00;;;;;;10193828;29;20513;-78
2023/09/17 06:39:53;;;;;;;11.90;9.18;;;16.60;1.00;;;;;;10208789;29;20196;-79
2023/09/17 06:45:15;;;;;;;10.20;7.53;;;16.70;1.00;;;;;;10235431;29;20239;-79
2023/09/17 06:50:37;;;;;;;7.18;6.40;;;18.30;99.90;;;;;;10240957;29;20198;-78
2023/09/17 06:55:59;;;;;;;6.97;5.97;;;20.20;1.00;;;;;;10239803;29;20399;-78
2023/09/17 07:01:21;;;;;;;8.85;7.00;;;21.50;1.00;;;;;;10241330;29;20204;-76
2023/09/17 07:06:43;;;;;;;7.53;6.25;;;22.70;99.90;;;;;;10239125;29;20565;-77
2023/09/17 07:12:05;;;;;;;8.80;6.47;;;23.60;99.90;;;;;;10225394;29;20282;-78
2023/09/17 07:17:26;;;;;;;7.15;5.45;;;24.60;99.90;;;;;;10239368;29;20212;-78
2023/09/17 07:22:48;;;;;;;8.23;6.95;;;25.30;99.90;;;;;;10225281;29;20227;-78
2023/09/17 07:28:10;;;;;;;8.07;6.70;;;;;;;;;;10239796;29;20192;-78
2023/09/17 07:33:32;;;;;;;9.15;6.53;;;26.80;1.00;;;;;;10237167;29;20231;-78
2023/09/17 07:38:53;;;;;;;8.57;6.70;;;26.90;99.90;;;;;;10239192;29;20194;-78
2023/09/17 07:44:15;;;;;;;9.40;6.10;;;27.40;99.90;;;;;;10237335;29;20236;-78
2023/09/17 07:49:36;;;;;;;7.88;6.13;;;28.00;1.00;;;;;;10238673;29;20192;-78
2023/09/17 07:54:58;;;;;;;9.07;7.43;;;28.50;1.00;;;;;;10236837;29;20200;-78
2023/09/17 08:00:21;;;;;;;6.68;5.68;;;28.40;1.00;;;;;;10236308;29;20562;-79
2023/09/17 08:05:49;;;;;;;10.73;7.18;;;;;;;;;;10237881;29;20248;-79
2023/09/17 08:11:11;;;;;;;8.18;6.35;;;29.40;1.00;;;;;;10262585;29;20210;-79
2023/09/17 08:16:32;;;;;;;7.03;6.32;;;30.00;51.60;;;;;;10254649;29;20211;-79
2023/09/17 08:21:54;;;;;;;7.93;7.03;;;30.00;99.90;;;;;;10236509;29;20199;-78
2023/09/17 08:27:17;;;;;;;8.13;7.28;;;30.00;99.90;;;;;;10235562;29;20219;-78
2023/09/17 08:32:44;;;;;;;9.82;7.55;;;30.30;99.90;;;;;;10201786;29;20200;-78
2023/09/17 08:38:06;;;;;;;9.45;6.82;;;;;;;;;;10237001;29;20359;-78
2023/09/17 08:43:28;;;;;;;10.98;7.35;;;31.20;99.90;;;;;;10235736;29;20294;-78
2023/09/17 08:48:50;;;;;;;8.98;6.68;;;31.50;99.90;;;;;;10234483;29;20204;-78
2023/09/17 08:54:28;;;;;;;9.00;6.80;;;31.70;99.90;;;;;;10236540;29;20195;-78
2023/09/17 09:00:10;;;;;;;13.88;7.05;;;32.10;99.90;;;;;;10235850;29;20200;-79
2023/09/17 09:05:35;;;;;;;12.20;6.88;;;32.50;99.90;;;;;;10233413;29;20244;-78
2023/09/17 09:10:56;;;;;;;15.70;7.75;;;32.70;99.90;;;;;;10235535;29;20207;-79
2023/09/17 09:21:39;;;;;;;10.93;7.53;;;33.10;99.90;;;;;;10233881;29;20207;-78
2023/09/17 09:27:01;;;;;;;7.40;5.70;;;;;;;;;;10235092;29;20282;-79
2023/09/17 09:32:23;;;;;;;9.07;6.45;;;33.90;99.90;;;;;;10232446;29;20436;-78
2023/09/17 09:37:46;;;;;;;6.07;4.88;;;;;;;;;;10234187;29;20521;-78
2023/09/17 09:43:16;;;;;;;5.30;4.80;;;;;;;;;;10224065;29;20231;-79
2023/09/17 09:48:39;;;;;;;6.85;4.50;;;34.30;99.90;;;;;;10234796;29;20376;-79
2023/09/17 09:54:01;;;;;;;5.35;4.22;;;34.20;99.90;;;;;;10219765;29;20573;-78
2023/09/17 09:59:23;;;;;;;4.85;4.40;;;34.70;99.90;;;;;;10232707;29;20215;-79
2023/09/17 10:04:45;;;;;;;5.90;4.70;;;34.90;99.90;;;;;;10235817;29;20291;-79
2023/09/17 10:10:10;;;;;;;5.38;4.63;;;34.70;99.90;;;;;;10232337;29;20207;-78
2023/09/17 10:15:36;;;;;;;7.88;4.80;;;34.70;99.90;;;;;;10219826;29;20234;-79
2023/09/17 10:20:59;;;;;;;4.50;4.10;;;34.60;99.90;;;;;;10236378;29;20494;-78
2023/09/17 10:26:22;;;;;;;4.55;3.55;;;34.40;99.90;;;;;;10240390;29;20422;-78
2023/09/17 10:31:46;;;;;;;9.60;3.95;;;34.70;99.90;;;;;;10241293;29;20214;-79
2023/09/17 10:37:08;;;;;;;6.28;3.50;;;34.90;99.90;;;;;;10241114;29;20214;-79
2023/09/17 10:42:32;;;;;;;3.67;3.20;;;35.00;99.90;;;;;;10237913;29;20200;-78
2023/09/17 10:47:57;;;;;;;4.25;3.63;;;35.00;99.90;;;;;;10240473;29;20214;-78
2023/09/17 10:53:18;;;;;;;6.40;4.05;;;35.20;99.90;;;;;;10241059;29;20195;-79
2023/09/17 10:58:45;;;;;;;8.25;4.40;;;35.20;99.90;;;;;;10238795;29;20209;-79
2023/09/17 11:04:17;;;;;;;11.63;3.67;;;35.00;99.90;;;;;;10238947;29;20247;-79
2023/09/17 11:09:41;;;;;;;5.43;3.55;;;35.10;99.90;;;;;;10239189;29;20228;-79
2023/09/17 11:15:03;;;;;;;7.63;3.38;;;35.30;99.90;;;;;;10240139;29;20200;-79
2023/09/17 11:20:25;;;;;;;5.03;3.40;;;35.50;99.90;;;;;;10237773;29;20207;-78
2023/09/17 11:25:48;;;;;;;4.63;3.70;;;35.20;99.90;;;;;;10238011;29;20250;-78
2023/09/17 11:31:12;;;;;;;6.53;4.22;;;35.10;99.90;;;;;;10237292;29;20532;-79
2023/09/17 11:36:35;;;;;;;4.13;3.10;;;34.80;99.90;;;;;;10239124;29;20278;-79
2023/09/17 11:42:12;;;;;;;4.38;3.33;;;35.00;99.90;;;;;;10238093;29;20207;-79
2023/09/17 11:47:35;;;;;;;4.47;3.53;;;34.80;99.90;;;;;;10236828;29;20215;-79
2023/09/17 11:53:06;;;;;;;3.50;3.20;;;34.90;99.90;;;;;;10238544;29;20203;-79
2023/09/17 11:58:32;;;;;;;6.97;4.10;;;35.10;99.90;;;;;;10236922;29;20235;-79
2023/09/17 12:03:54;;;;;;;3.72;3.28;;;35.00;99.90;;;;;;10237914;29;20463;-78
2023/09/17 12:14:58;;;;;;;3.47;2.90;;;35.00;99.90;;;;;;10237816;29;20267;-78
2023/09/17 12:26:36;;;;;;;3.97;3.08;;;34.80;99.90;;;;;;10236905;29;20413;-78
2023/09/17 12:31:58;;;;;;;5.75;2.83;;;34.70;99.90;;;;;;10235163;29;20207;-79
2023/09/17 12:37:21;;;;;;;4.43;3.20;;;34.90;99.90;;;;;;10234679;29;20206;-78
2023/09/17 12:42:42;;;;;;;7.10;3.22;;;34.40;99.90;;;;;;10235664;29;20204;-79
2023/09/17 12:48:04;;;;;;;3.63;2.92;;;34.10;99.90;;;;;;10235196;29;20204;-79
2023/09/17 12:53:26;;;;;;;3.35;2.78;;;33.70;99.90;;;;;;10235967;29;20319;-79
2023/09/17 12:58:51;;;;;;;11.32;4.10;;;33.70;99.90;;;;;;10234998;29;20208;-78
2023/09/17 13:04:12;;;;;;;4.30;3.50;;;33.40;99.90;;;;;;10234719;29;20629;-77
2023/09/17 13:09:34;;;;;;;3.70;3.15;;;33.30;99.90;;;;;;10234364;29;20196;-77
2023/09/17 13:14:57;;;;;;;4.63;3.63;;;33.10;99.90;;;;;;10234648;29;20206;-77
2023/09/17 13:20:19;;;;;;;3.90;3.42;;;31.70;99.90;;;;;;10233865;29;20224;-77
2023/09/17 13:25:40;;;;;;;7.10;4.10;;;30.80;99.90;;;;;;10234233;29;20295;-77
2023/09/17 13:31:04;;;;;;;3.67;3.20;;;29.90;99.90;;;;;;10234225;29;20498;-77
2023/09/17 13:36:28;;;;;;;5.25;3.90;;;29.50;99.90;;;;;;10234874;29;20207;-78
2023/09/17 13:41:49;;;;;;;5.55;3.88;;;29.00;99.90;;;;;;10234190;29;20503;-77
2023/09/17 13:47:11;;;;;;;8.50;4.13;;;28.60;99.90;;;;;;10200311;29;20399;-78
2023/09/17 13:52:33;;;;;;;16.38;4.88;;;28.20;99.90;;;;;;10233268;29;20396;-78
2023/09/17 13:57:55;;;;;;;6.22;4.88;;;27.90;99.90;;;;;;10242036;29;20219;-77
2023/09/17 14:03:16;;;;;;;6.60;5.28;;;27.70;99.90;;;;;;10243057;29;20274;-78
2023/09/17 14:08:38;;;;;;;5.60;4.97;;;;;;;;;;10239828;29;20199;-78
2023/09/17 14:14:00;;;;;;;5.78;3.80;;;27.40;97.00;;;;;;10216039;29;20196;-77
2023/09/17 14:19:22;;;;;;;7.22;4.32;;;27.40;99.90;;;;;;10241385;29;20290;-78
2023/09/17 14:24:44;;;;;;;5.97;4.10;;;27.50;99.90;;;;;;10240244;29;20234;-78
2023/09/17 14:30:10;;;;;;;8.27;4.18;;;27.30;99.90;;;;;;10240315;29;20468;-78
2023/09/17 14:35:33;;;;;;;4.85;4.35;;;27.40;99.90;;;;;;10241741;29;20268;-78
2023/09/17 14:40:55;;;;;;;4.43;4.03;;;27.40;99.90;;;;;;10240716;29;20206;-78
2023/09/17 14:46:16;;;;;;;5.50;4.10;;;27.30;99.90;;;;;;10239635;29;20231;-78
2023/09/17 14:51:38;;;;;;;6.95;4.15;;;27.10;99.90;;;;;;10240322;29;20286;-78
2023/09/17 14:56:59;;;;;;;5.18;4.13;;;26.90;99.90;;;;;;10239906;29;20219;-78
2023/09/17 15:02:21;;;;;;;6.05;4.50;;;26.90;99.90;;;;;;10241899;29;20402;-78
2023/09/17 15:07:42;;;;;;;6.95;5.07;;;26.80;99.90;;;;;;10238735;29;20318;-78
2023/09/17 15:13:05;;;;;;;8.52;5.15;;;26.60;99.90;;;;;;10243559;29;20282;-77
2023/09/17 15:18:27;;;;;;;5.15;4.63;;;26.50;1.00;;;;;;10239108;29;20207;-77
2023/09/17 15:23:49;;;;;;;7.20;5.05;;;26.30;99.90;;;;;;10239814;29;20544;-77
2023/09/17 15:29:11;;;;;;;8.00;5.30;;;26.20;99.90;;;;;;10236843;29;20226;-78
2023/09/17 15:34:35;;;;;;;4.93;4.40;;;26.00;99.90;;;;;;10238112;29;20204;-78
2023/09/17 15:39:56;;;;;;;6.15;5.55;;;26.00;99.90;;;;;;10238451;29;20211;-78
2023/09/17 15:45:18;;;;;;;8.35;5.15;;;25.80;99.90;;;;;;10238581;29;20234;-77
2023/09/17 15:50:41;;;;;;;8.60;5.20;;;25.70;99.90;;;;;;10237754;29;20204;-78
2023/09/17 15:56:02;;;;;;;8.00;6.07;;;25.40;99.90;;;;;;10238610;29;20251;-78
2023/09/17 16:01:24;;;;;;;7.82;5.72;;;25.30;99.90;;;;;;10237075;29;20200;-77
2023/09/17 16:06:46;;;;;;;7.53;6.22;;;25.00;99.90;;;;;;10237457;29;20481;-78
2023/09/17 16:12:08;;;;;;;10.07;6.38;;;;;;;;;;10260975;29;20203;-78
2023/09/17 16:17:29;;;;;;;7.75;6.95;;;24.40;99.90;;;;;;10267186;28;20203;-77
2023/09/17 16:22:51;;;;;;;10.00;7.32;;;24.20;99.90;;;;;;10237889;29;20192;-76
2023/09/17 16:28:12;;;;;;;10.30;6.85;;;24.00;99.90;;;;;;10235672;29;20200;-78
2023/09/17 16:33:34;;;;;;;9.65;7.43;;;23.90;99.90;;;;;;10235738;29;20259;-78
2023/09/17 16:38:57;;;;;;;11.18;7.28;;;23.70;99.90;;;;;;10236348;29;20208;-78
2023/09/17 16:44:18;;;;;;;10.20;7.55;;;23.60;99.90;;;;;;10234225;29;20227;-78
2023/09/17 16:49:40;;;;;;;10.57;7.20;;;23.60;99.90;;;;;;10221206;29;20212;-78
2023/09/17 16:55:02;;;;;;;9.50;7.43;;;23.40;99.90;;;;;;10235605;29;20220;-78
2023/09/17 17:00:23;;;;;;;10.27;7.65;;;23.00;1.00;;;;;;10234180;29;20238;-76
2023/09/17 17:05:45;;;;;;;10.48;7.72;;;23.10;99.90;;;;;;10235747;29;20251;-78
2023/09/17 17:11:08;;;;;;;11.52;7.30;;;23.00;99.90;;;;;;10233091;29;20208;-78
2023/09/17 17:16:29;;;;;;;7.30;6.55;;;22.90;99.90;;;;;;10196335;29;20196;-77
2023/09/17 17:21:51;;;;;;;7.35;6.57;;;22.70;99.90;;;;;;10207275;29;20498;-78
2023/09/17 17:27:12;;;;;;;13.35;8.13;;;22.60;99.90;;;;;;10235235;29;20223;-77
2023/09/17 17:32:34;;;;;;;8.65;7.20;;;;;;;;;;10233584;29;20207;-78
2023/09/17 17:37:56;;;;;;;7.10;6.40;;;22.40;99.90;;;;;;10235167;29;20196;-78
2023/09/17 17:43:17;;;;;;;8.65;6.93;;;;;;;;;;10234042;29;20426;-78
2023/09/17 17:48:39;;;;;;;10.38;7.10;;;21.90;1.00;;;;;;10220864;29;20196;-79
2023/09/17 17:54:01;;;;;;;8.18;6.60;;;21.80;1.00;;;;;;10231305;29;20533;-79
2023/09/17 17:59:22;;;;;;;8.57;7.10;;;21.60;1.00;;;;;;10233389;29;20283;-80
2023/09/17 18:04:44;;;;;;;11.20;7.75;;;21.60;1.00;;;;;;10232410;29;20247;-79
2023/09/17 18:10:09;;;;;;;11.80;8.82;;;21.50;1.00;;;;;;10234491;29;20246;-79
2023/09/17 18:15:32;;;;;;;10.60;7.82;;;21.30;1.00;;;;;;10247993;29;20545;-79
2023/09/17 18:20:54;;;;;;;9.88;7.60;;;21.20;1.00;;;;;;10234552;29;20198;-79
2023/09/17 18:26:15;;;;;;;11.43;8.82;;;21.10;1.00;;;;;;10232777;29;20254;-79
2023/09/17 18:31:36;;;;;;;11.43;7.70;;;21.00;1.00;;;;;;10233422;29;20196;-79
2023/09/17 18:36:58;;;;;;;10.25;8.43;;;20.90;1.00;;;;;;10233178;29;20212;-78
2023/09/17 18:42:19;;;;;;;10.35;7.72;;;20.90;1.00;;;;;;10236793;29;20207;-78
2023/09/17 18:47:41;;;;;;;10.60;8.82;;;20.80;1.00;;;;;;10241149;29;20235;-78
2023/09/17 18:53:03;;;;;;;13.90;7.95;;;20.70;1.00;;;;;;10239546;29;20196;-79
2023/09/17 18:58:25;;;;;;;11.23;7.63;;;20.70;1.00;;;;;;10240206;29;20231;-79
2023/09/17 19:03:46;;;;;;;9.55;7.80;;;20.70;99.90;;;;;;10238547;29;20218;-79
2023/09/17 19:09:08;;;;;;;9.13;7.38;;;20.70;99.90;;;;;;10238954;29;20420;-79
2023/09/17 19:14:30;;;;;;;9.73;7.68;;;20.70;99.90;;;;;;10238296;29;20204;-79
2023/09/17 19:19:52;;;;;;;12.00;8.88;;;20.70;99.90;;;;;;10240398;29;20218;-79
2023/09/17 19:25:14;;;;;;;9.25;8.18;;;20.60;99.90;;;;;;10237755;29;20474;-79
2023/09/17 19:30:36;;;;;;;13.98;8.40;;;20.60;99.90;;;;;;10239821;29;20475;-79
2023/09/17 19:36:00;;;;;;;10.98;7.88;;;20.50;99.90;;;;;;10237675;29;20211;-79
2023/09/17 19:41:23;;;;;;;11.73;7.97;;;20.50;99.90;;;;;;10239263;29;20192;-79
2023/09/17 19:46:45;;;;;;;12.98;7.82;;;20.50;99.90;;;;;;10237256;29;20233;-78
2023/09/17 19:52:06;;;;;;;21.02;10.30;;;20.50;99.90;;;;;;10236619;29;20216;-78
2023/09/17 19:57:28;;;;;;;23.80;11.60;;;20.30;99.90;;;;;;10236659;29;20208;-79
2023/09/17 20:02:50;;;;;;;25.17;12.23;;;;;;;;;;10238063;29;20202;-78
2023/09/17 20:08:12;;;;;;;24.52;11.75;;;20.10;1.00;;;;;;10231532;29;20250;-77
2023/09/17 20:13:33;;;;;;;26.70;12.50;;;20.00;1.00;;;;;;10236019;29;20267;-78
2023/09/17 20:19:00;;;;;;;18.17;10.27;;;;;;;;;;10238136;29;20266;-78
2023/09/17 20:24:22;;;;;;;14.70;9.18;;;;;;;;;;10236543;29;20274;-78
2023/09/17 20:29:44;;;;;;;10.15;8.60;;;19.90;99.90;;;;;;10239047;29;20200;-76
2023/09/17 20:35:06;;;;;;;11.18;9.07;;;19.90;99.90;;;;;;10235741;29;20296;-77
2023/09/17 20:40:28;;;;;;;14.15;9.93;;;19.80;99.90;;;;;;10236328;29;20199;-77
2023/09/17 20:45:50;;;;;;;16.65;11.23;;;19.80;99.90;;;;;;10236122;29;20243;-76
2023/09/17 20:51:11;;;;;;;13.27;9.15;;;19.70;99.90;;;;;;10235559;29;20200;-77
2023/09/17 20:56:33;;;;;;;12.32;9.52;;;19.60;1.00;;;;;;10235128;29;20279;-78
2023/09/17 21:01:55;;;;;;;12.10;8.98;;;19.60;1.00;;;;;;10236515;29;20392;-78
2023/09/17 21:07:17;;;;;;;12.52;9.20;;;19.60;1.00;;;;;;10234461;29;20399;-78
2023/09/17 21:12:38;;;;;;;9.95;8.55;;;19.50;1.00;;;;;;10222628;29;20196;-78
2023/09/17 21:18:00;;;;;;;12.20;9.73;;;19.50;99.90;;;;;;10233933;29;20204;-78
2023/09/17 21:23:22;;;;;;;12.73;10.15;;;19.40;1.00;;;;;;10233753;29;20219;-77
2023/09/17 21:28:43;;;;;;;13.18;10.35;;;19.40;99.90;;;;;;10235667;29;20278;-79
2023/09/17 21:34:05;;;;;;;11.48;9.77;;;19.40;99.90;;;;;;10233192;29;20442;-80
2023/09/17 21:53:01;;;;;;;18.17;11.25;;;19.10;99.90;;;;;;10233097;29;20204;-78
2023/09/17 21:58:24;;;;;;;24.80;12.95;;;19.10;99.90;;;;;;10230291;29;20203;-79
2023/09/17 22:03:45;;;;;;;25.48;12.82;;;19.00;1.00;;;;;;10233755;29;20218;-79
2023/09/17 22:09:07;;;;;;;20.90;12.15;;;19.00;1.00;;;;;;10202918;29;20279;-79
2023/09/17 22:14:29;;;;;;;18.27;10.82;;;19.00;1.00;;;;;;10234508;29;20274;-78
2023/09/17 22:19:51;;;;;;;14.95;10.35;;;19.00;1.00;;;;;;10240998;29;20199;-76
2023/09/17 22:25:15;;;;;;;10.70;8.52;;;18.90;1.00;;;;;;10240339;29;20514;-78
2023/09/17 22:30:37;;;;;;;12.45;9.48;;;18.90;42.20;;;;;;10241235;29;20203;-78
2023/09/17 22:35:58;;;;;;;11.73;8.95;;;18.90;1.00;;;;;;10226634;29;20243;-78
2023/09/17 22:41:25;;;;;;;12.75;8.48;;;18.90;1.00;;;;;;10240507;29;20202;-79
2023/09/17 22:46:46;;;;;;;13.25;9.38;;;18.90;99.90;;;;;;10202822;29;20227;-78
2023/09/17 22:52:08;;;;;;;17.90;10.68;;;18.90;1.00;;;;;;10206166;29;20505;-78
2023/09/17 22:57:29;;;;;;;13.10;10.20;;;18.90;1.00;;;;;;10240802;29;20199;-78
2023/09/17 23:02:51;;;;;;;10.75;9.13;;;18.90;99.90;;;;;;10238719;29;20207;-79
2023/09/17 23:08:12;;;;;;;14.73;10.30;;;18.90;99.90;;;;;;10240105;29;20250;-78
2023/09/17 23:13:35;;;;;;;11.68;9.85;;;18.80;99.90;;;;;;10239459;29;20203;-78
2023/09/17 23:19:00;;;;;;;14.40;10.38;;;18.70;1.00;;;;;;10238991;29;20200;-79
2023/09/17 23:24:22;;;;;;;14.80;9.98;;;18.80;1.00;;;;;;10238191;29;20224;-78
2023/09/17 23:29:44;;;;;;;10.23;8.90;;;18.80;1.00;;;;;;10239407;29;20207;-78
2023/09/17 23:35:05;;;;;;;11.45;8.68;;;18.80;99.90;;;;;;10224673;29;20238;-78
2023/09/17 23:40:28;;;;;;;11.02;9.43;;;18.80;99.90;;;;;;10238554;29;20192;-78
2023/09/17 23:45:49;;;;;;;10.68;9.27;;;18.80;39.60;;;;;;10238231;29;20283;-79
2023/09/17 23:51:11;;;;;;;16.42;11.77;;;18.80;7.00;;;;;;10237928;29;20200;-78
2023/09/17 23:56:33;;;;;;;17.02;11.35;;;18.80;99.90;;;;;;10238064;29;20244;-78
